Time;durP1;ratioP1;P1;durP2;ratioP2;P2;SDS_P1;SDS_P2;PMS_P1;PMS_P2;Temp;Humidity;BMP_temperature;BMP_pressure;BME280_temperature;BME280_humidity;BME280_pressure;Samples;Min_cycle;Max_cycle;Signal;HPM_P1;HPM_P2
2022/01/20 00:02:12;;;;;;;7.07;5.53;;;;;;;4.08;71.58;97239.94;5052029;28;20045;-78
2022/01/20 00:04:47;;;;;;;6.97;5.00;;;;;;;4.07;72.08;97230.56;5052490;28;20049;-78
2022/01/20 00:26:47;;;;;;;7.72;6.03;;;;;;;4.08;72.60;97231.38;5055723;28;20049;-78
2022/01/20 00:29:22;;;;;;;6.25;5.57;;;;;;;4.05;73.47;97224.72;5056057;28;20045;-78
2022/01/20 00:32:03;;;;;;;6.35;5.28;;;;;;;4.02;73.34;97226.72;5056178;28;20057;-78
2022/01/20 00:34:53;;;;;;;7.15;5.15;;;;;;;3.94;73.38;97227.34;5056240;28;20064;-78
2022/01/20 00:37:22;;;;;;;5.97;4.82;;;;;;;3.89;73.33;97234.63;5056858;28;20049;-78
2022/01/20 00:39:50;;;;;;;7.10;5.60;;;;;;;3.86;73.45;97232.31;5056799;28;20055;-79
2022/01/20 00:42:18;;;;;;;6.30;5.03;;;;;;;3.84;73.91;97239.34;5056536;28;20106;-78
2022/01/20 00:44:46;;;;;;;6.82;5.25;;;;;;;3.82;73.47;97238.66;5055857;28;20499;-78
2022/01/20 00:47:15;;;;;;;7.03;5.38;;;;;;;3.79;73.90;97244.06;5055821;28;20060;-78
2022/01/20 00:49:43;;;;;;;6.38;5.03;;;;;;;3.79;74.33;97241.50;5055728;28;20053;-78
2022/01/20 00:52:11;;;;;;;7.22;5.78;;;;;;;3.81;73.89;97242.19;5055704;28;20041;-78
2022/01/20 00:54:40;;;;;;;6.20;4.72;;;;;;;3.78;73.17;97250.97;5055437;28;20072;-78
2022/01/20 00:57:08;;;;;;;6.90;5.15;;;;;;;3.77;74.19;97251.13;5055469;28;20049;-79
2022/01/20 00:59:36;;;;;;;8.30;5.43;;;;;;;3.75;73.83;97253.81;5055877;28;20053;-78
2022/01/20 01:02:07;;;;;;;6.93;5.38;;;;;;;3.73;74.72;97250.53;5055675;28;20048;-78
2022/01/20 01:04:35;;;;;;;7.07;5.07;;;;;;;3.74;74.19;97248.78;5055520;28;20049;-78
2022/01/20 01:07:23;;;;;;;8.07;5.03;;;;;;;3.74;74.68;97254.78;5055107;28;20103;-78
2022/01/20 01:09:52;;;;;;;8.13;5.32;;;;;;;3.74;74.11;97244.44;5055350;28;20049;-78
2022/01/20 01:12:29;;;;;;;8.82;5.53;;;;;;;3.75;74.86;97253.00;5055351;28;20049;-78
2022/01/20 01:14:57;;;;;;;6.68;5.30;;;;;;;3.75;74.30;97247.84;5055470;28;20060;-78
2022/01/20 01:20:16;;;;;;;6.78;5.45;;;;;;;3.73;74.91;97245.38;5055617;28;20053;-78
2022/01/20 01:22:43;;;;;;;7.50;5.38;;;;;;;3.72;75.06;97248.91;5055142;28;20529;-78
2022/01/20 01:25:14;;;;;;;6.97;5.57;;;;;;;3.71;74.75;97247.25;5054581;28;20053;-78
2022/01/20 01:27:44;;;;;;;6.75;5.43;;;;;;;3.71;74.97;97245.50;5054768;28;20053;-78
2022/01/20 01:30:26;;;;;;;7.97;5.43;;;;;;;3.67;74.52;97251.88;5055266;28;20053;-78
2022/01/20 01:32:55;;;;;;;6.40;5.63;;;;;;;3.64;74.99;97246.94;5055261;28;20049;-78
2022/01/20 01:35:26;;;;;;;6.97;5.68;;;;;;;3.64;75.63;97251.28;5054888;28;20060;-78
2022/01/20 01:40:42;;;;;;;6.75;4.93;;;;;;;3.65;76.01;97250.31;5055030;28;20072;-78
2022/01/20 01:43:17;;;;;;;6.53;4.88;;;;;;;3.61;75.01;97249.75;5054955;28;20068;-78
2022/01/20 01:45:46;;;;;;;5.93;4.70;;;;;;;3.60;75.19;97250.69;5054562;28;20063;-78
2022/01/20 01:48:14;;;;;;;7.43;5.20;;;;;;;3.60;75.08;97250.69;5055067;28;20076;-78
2022/01/20 01:50:41;;;;;;;7.47;5.20;;;;;;;3.59;75.38;97243.91;5054695;28;20474;-78
2022/01/20 01:53:09;;;;;;;6.13;4.68;;;;;;;3.57;75.62;97240.63;5054374;28;20056;-78
2022/01/20 01:55:37;;;;;;;6.47;5.32;;;;;;;3.55;75.35;97241.69;5054364;28;20052;-78
2022/01/20 01:58:06;;;;;;;6.30;5.20;;;;;;;3.52;75.68;97245.34;5054004;28;20458;-78
2022/01/20 02:00:34;;;;;;;7.93;5.60;;;;;;;3.50;75.16;97239.47;5054222;28;20056;-79
2022/01/20 02:03:02;;;;;;;7.85;5.53;;;;;;;3.48;75.93;97231.06;5053857;28;20042;-78
2022/01/20 02:05:31;;;;;;;6.75;5.32;;;;;;;3.46;75.78;97240.66;5054481;28;20477;-78
2022/01/20 02:19:08;;;;;;;6.68;5.45;;;;;;;3.34;75.42;97232.13;5054834;28;20057;-76
2022/01/20 02:21:46;;;;;;;5.82;4.75;;;;;;;3.32;75.54;97228.03;5052683;28;20345;-76
2022/01/20 02:24:13;;;;;;;5.65;4.72;;;;;;;3.29;75.36;97223.94;5054320;28;20056;-76
2022/01/20 02:26:41;;;;;;;5.45;4.85;;;;;;;3.29;76.10;97223.94;5054805;28;20053;-79
2022/01/20 02:29:08;;;;;;;5.07;4.40;;;;;;;3.29;75.86;97227.31;5053290;28;20056;-77
2022/01/20 02:31:36;;;;;;;5.70;4.88;;;;;;;3.26;75.72;97217.25;5052389;28;20044;-77
2022/01/20 02:34:04;;;;;;;8.52;5.03;;;;;;;3.27;76.00;97220.66;5061488;22;20121;-82
2022/01/20 02:36:32;;;;;;;7.38;4.97;;;;;;;3.24;75.56;97228.66;5035413;28;20060;-82
2022/01/20 02:39:07;;;;;;;6.13;4.75;;;;;;;3.22;76.17;97222.78;5038064;28;20048;-82
2022/01/20 02:47:12;;;;;;;6.07;4.75;;;;;;;3.21;76.10;97224.53;5037297;28;20049;-81
2022/01/20 02:49:39;;;;;;;4.72;4.20;;;;;;;3.20;76.03;97216.94;5036483;28;20407;-82
2022/01/20 02:52:07;;;;;;;4.90;4.10;;;;;;;3.21;76.28;97226.28;5036759;28;20049;-82
2022/01/20 02:54:36;;;;;;;4.88;4.35;;;;;;;3.20;76.81;97230.63;5036059;28;20486;-84
2022/01/20 02:57:06;;;;;;;5.53;4.30;;;;;;;3.18;76.55;97224.78;5036035;28;20522;-83
2022/01/20 02:59:34;;;;;;;6.85;5.15;;;;;;;3.16;76.77;97226.66;5036162;28;20427;-82
2022/01/20 03:02:03;;;;;;;5.28;4.78;;;;;;;3.20;77.16;97224.66;5037785;28;20052;-82
2022/01/20 03:04:31;;;;;;;5.47;4.47;;;;;;;3.22;77.71;97228.75;5038428;28;20072;-85
2022/01/20 03:06:59;;;;;;;6.25;4.53;;;;;;;3.21;76.56;97234.84;5040609;28;20056;-84
2022/01/20 03:09:27;;;;;;;5.32;4.82;;;;;;;3.16;76.11;97239.53;5040125;28;20216;-83
2022/01/20 03:11:56;;;;;;;5.90;4.70;;;;;;;3.14;76.07;97232.88;5039990;28;20049;-82
2022/01/20 03:14:23;;;;;;;5.43;4.40;;;;;;;3.14;76.58;97235.44;5038361;28;20511;-82
2022/01/20 03:16:51;;;;;;;5.53;4.32;;;;;;;3.15;77.13;97237.06;5038554;28;20053;-83
2022/01/20 03:19:20;;;;;;;4.88;4.13;;;;;;;3.14;76.67;97240.59;5039054;28;20144;-82
2022/01/20 03:21:47;;;;;;;4.95;4.43;;;;;;;3.15;77.17;97240.50;5037819;28;20427;-84
2022/01/20 03:24:15;;;;;;;5.32;4.53;;;;;;;3.15;77.12;97249.97;5038405;28;20060;-83
2022/01/20 03:26:42;;;;;;;6.38;4.70;;;;;;;3.14;76.98;97262.03;5038912;28;20067;-81
2022/01/20 03:29:11;;;;;;;4.05;3.60;;;;;;;3.13;76.89;97252.69;5038518;28;20057;-80
2022/01/20 03:31:39;;;;;;;7.05;5.03;;;;;;;3.15;77.60;97255.97;5038122;28;20454;-81
2022/01/20 03:34:07;;;;;;;4.90;4.43;;;;;;;3.17;77.56;97243.78;5037612;28;20053;-82
2022/01/20 03:36:35;;;;;;;6.32;4.95;;;;;;;3.15;77.04;97250.81;5039266;28;20049;-83
2022/01/20 03:39:05;;;;;;;5.63;4.72;;;;;;;3.12;76.90;97240.72;5041168;28;20522;-86
2022/01/20 03:41:32;;;;;;;7.70;6.10;;;;;;;3.14;77.36;97244.00;5041152;28;20060;-84
2022/01/20 03:44:00;;;;;;;6.68;5.55;;;;;;;3.17;77.74;97232.63;5040038;28;20052;-84
2022/01/20 03:46:29;;;;;;;5.75;5.15;;;;;;;3.18;78.14;97240.25;5041028;28;20068;-83
2022/01/20 03:49:07;;;;;;;5.97;5.25;;;;;;;3.16;77.46;97247.28;5040068;28;20064;-84
2022/01/20 03:51:35;;;;;;;5.93;5.03;;;;;;;3.17;77.86;97242.94;5039015;28;20427;-84
2022/01/20 03:54:04;;;;;;;5.82;5.00;;;;;;;3.19;77.88;97233.31;5039500;28;20052;-83
2022/01/20 03:56:33;;;;;;;6.93;5.25;;;;;;;3.24;77.60;97236.38;5040838;28;20053;-82
2022/01/20 03:59:00;;;;;;;7.03;5.20;;;;;;;3.25;77.38;97235.44;5039843;28;20049;-83
2022/01/20 04:01:29;;;;;;;6.18;5.00;;;;;;;3.23;77.46;97232.97;5040102;28;20218;-83
2022/01/20 04:03:57;;;;;;;8.00;5.65;;;;;;;3.24;77.74;97233.81;5039915;28;20045;-84
2022/01/20 04:06:27;;;;;;;5.82;5.05;;;;;;;3.24;78.25;97232.03;5039251;28;20049;-84
2022/01/20 04:08:56;;;;;;;8.48;5.82;;;;;;;3.25;78.06;97231.09;5038974;28;20045;-82
2022/01/20 04:11:25;;;;;;;5.38;4.85;;;;;;;3.26;77.24;97237.91;5039470;28;20049;-82
2022/01/20 04:13:53;;;;;;;5.53;4.85;;;;;;;3.25;77.10;97241.41;5040630;28;20055;-86
2022/01/20 04:16:32;;;;;;;6.68;5.28;;;;;;;3.23;77.52;97238.13;5040380;28;20045;-84
2022/01/20 04:19:04;;;;;;;7.00;5.07;;;;;;;3.20;77.56;97237.56;5040798;28;20045;-82
2022/01/20 04:21:32;;;;;;;5.53;4.70;;;;;;;3.17;77.06;97233.47;5040804;28;20045;-81
2022/01/20 04:24:02;;;;;;;8.18;5.53;;;;;;;3.17;77.95;97230.03;5039905;28;20585;-83
2022/01/20 04:26:30;;;;;;;8.70;4.93;;;;;;;3.18;77.80;97229.13;5038953;28;20125;-82
2022/01/20 04:28:58;;;;;;;5.22;4.68;;;;;;;3.18;78.18;97227.34;5037855;28;20041;-82
2022/01/20 04:31:27;;;;;;;5.13;4.63;;;;;;;3.17;77.57;97233.47;5038505;28;20049;-83
2022/01/20 04:33:56;;;;;;;5.72;4.45;;;;;;;3.16;76.86;97246.47;5038958;28;20096;-80
2022/01/20 04:36:26;;;;;;;4.75;3.95;;;;;;;3.13;76.49;97244.94;5038576;28;20052;-82
2022/01/20 04:38:54;;;;;;;5.47;4.50;;;;;;;3.13;77.71;97247.53;5038570;28;20053;-82
2022/01/20 04:41:22;;;;;;;4.65;3.83;;;;;;;3.14;77.44;97249.16;5038359;28;20057;-82
2022/01/20 04:43:50;;;;;;;5.38;4.63;;;;;;;3.15;77.63;97250.81;5039050;28;20050;-82
2022/01/20 04:46:25;;;;;;;6.10;3.80;;;;;;;3.17;77.83;97253.25;5037584;28;20092;-83
2022/01/20 04:49:12;;;;;;;4.43;3.72;;;;;;;3.17;77.83;97251.50;5037623;28;20103;-82
2022/01/20 04:57:17;;;;;;;4.47;3.75;;;;;;;3.23;78.04;97238.13;5037754;28;20049;-82
2022/01/20 04:59:45;;;;;;;4.65;4.15;;;;;;;3.23;78.02;97227.81;5039212;28;20053;-84
2022/01/20 05:02:14;;;;;;;4.57;3.97;;;;;;;3.23;77.63;97232.97;5041239;28;20056;-84
2022/01/20 05:04:41;;;;;;;4.20;3.80;;;;;;;3.22;78.17;97223.59;5040942;28;20578;-81
2022/01/20 05:07:18;;;;;;;4.28;3.88;;;;;;;3.21;77.49;97229.69;5040563;28;20045;-84
2022/01/20 05:09:45;;;;;;;4.60;4.15;;;;;;;3.20;77.40;97220.31;5041110;28;20487;-82
2022/01/20 05:12:17;;;;;;;3.92;3.53;;;;;;;3.18;77.63;97234.28;5040310;28;20053;-87
2022/01/20 05:14:44;;;;;;;5.30;4.13;;;;;;;3.18;77.37;97223.97;5040448;28;20046;-82
2022/01/20 05:17:12;;;;;;;5.00;4.50;;;;;;;3.16;78.13;97211.19;5041014;28;20049;-83
2022/01/20 05:19:40;;;;;;;4.55;3.92;;;;;;;3.16;77.84;97229.22;5041180;28;20053;-83
2022/01/20 05:22:07;;;;;;;4.82;4.00;;;;;;;3.16;78.04;97231.81;5041814;28;20054;-87
2022/01/20 05:24:36;;;;;;;4.95;4.15;;;;;;;3.17;78.12;97232.63;5043245;28;20051;-83
2022/01/20 05:27:04;;;;;;;6.35;4.30;;;;;;;3.14;78.08;97223.38;5042327;28;20050;-84
2022/01/20 05:29:32;;;;;;;5.10;4.10;;;;;;;3.14;78.18;97223.38;5041672;28;20049;-85
2022/01/20 05:31:59;;;;;;;6.68;4.75;;;;;;;3.15;78.47;97225.03;5042455;28;20049;-87
2022/01/20 05:34:27;;;;;;;4.97;4.22;;;;;;;3.17;78.42;97230.88;5042067;28;20060;-83
2022/01/20 05:36:54;;;;;;;4.97;4.20;;;;;;;3.20;79.06;97228.06;5043510;28;20064;-85
2022/01/20 05:39:22;;;;;;;6.13;4.40;;;;;;;3.25;79.19;97231.09;5043263;28;20049;-84
2022/01/20 05:41:51;;;;;;;4.65;4.13;;;;;;;3.29;79.44;97234.25;5042313;28;20064;-85
2022/01/20 05:44:18;;;;;;;9.82;5.60;;;;;;;3.30;79.52;97234.13;5043088;28;20143;-86
2022/01/20 05:46:49;;;;;;;6.10;5.32;;;;;;;3.30;78.57;97244.44;5043112;28;20458;-85
2022/01/20 05:49:20;;;;;;;7.30;5.78;;;;;;;3.30;78.90;97243.59;5043113;28;20056;-84
2022/01/20 05:51:52;;;;;;;22.63;12.77;;;;;;;3.30;78.56;97254.78;5041652;28;20053;-83
2022/01/20 05:54:20;;;;;;;49.28;25.95;;;;;;;3.30;78.45;97249.63;5041145;28;20064;-84
2022/01/20 05:56:48;;;;;;;10.90;6.40;;;;;;;3.34;78.59;97255.31;5041437;28;20053;-83
2022/01/20 05:59:17;;;;;;;8.13;6.05;;;;;;;3.36;79.34;97244.91;5041697;28;20064;-82
2022/01/20 06:01:52;;;;;;;8.25;5.75;;;;;;;3.38;78.97;97245.59;5041766;28;20056;-81
2022/01/20 06:04:20;;;;;;;6.72;5.20;;;;;;;3.37;78.15;97241.38;5041137;28;20447;-85
2022/01/20 06:06:48;;;;;;;8.40;5.65;;;;;;;3.36;78.56;97234.59;5040858;28;20060;-82
2022/01/20 06:09:15;;;;;;;4.95;4.43;;;;;;;3.36;78.45;97232.81;5041135;28;20046;-84
2022/01/20 06:11:43;;;;;;;6.72;5.03;;;;;;;3.40;79.24;97235.97;5038898;28;20053;-82
2022/01/20 06:14:10;;;;;;;6.75;5.18;;;;;;;3.42;78.91;97226.38;5040585;28;20053;-82
2022/01/20 06:16:41;;;;;;;6.32;5.32;;;;;;;3.43;79.15;97228.84;5040471;28;20061;-82
2022/01/20 06:19:09;;;;;;;5.55;4.68;;;;;;;3.43;78.81;97231.41;5040714;28;20084;-81
2022/01/20 06:21:37;;;;;;;9.93;5.45;;;;;;;3.43;79.34;97233.16;5041600;28;20045;-85
2022/01/20 06:24:06;;;;;;;7.00;5.63;;;;;;;3.43;79.16;97234.00;5040215;28;20049;-82
2022/01/20 06:26:33;;;;;;;7.50;5.93;;;;;;;3.43;79.14;97230.56;5039840;28;20061;-82
2022/01/20 06:29:01;;;;;;;6.00;5.40;;;;;;;3.42;79.25;97232.34;5041566;28;20419;-84
2022/01/20 06:31:29;;;;;;;7.57;5.90;;;;;;;3.41;78.81;97209.25;5040565;28;20056;-81
2022/01/20 06:33:58;;;;;;;7.38;5.55;;;;;;;3.39;78.71;97221.44;5040358;28;20057;-82
2022/01/20 06:36:25;;;;;;;8.50;6.63;;;;;;;3.40;78.98;97212.78;5040684;28;20046;-82
2022/01/20 06:38:54;;;;;;;9.80;6.70;;;;;;;3.40;79.04;97212.78;5039220;28;20045;-80
2022/01/20 06:41:21;;;;;;;8.95;5.80;;;;;;;3.36;78.44;97204.44;5040289;28;20042;-79
2022/01/20 06:43:49;;;;;;;6.80;5.88;;;;;;;3.33;78.13;97206.47;5041546;28;20111;-84
2022/01/20 06:46:17;;;;;;;8.77;6.28;;;;;;;3.29;78.05;97216.19;5039959;28;20084;-81
2022/01/20 06:48:45;;;;;;;7.30;5.60;;;;;;;3.25;78.42;97220.78;5039239;28;20061;-82
2022/01/20 06:51:14;;;;;;;7.60;5.60;;;;;;;3.26;78.39;97237.09;5038494;28;20514;-81
2022/01/20 06:53:42;;;;;;;7.15;5.75;;;;;;;3.26;78.71;97232.75;5039352;28;20528;-80
2022/01/20 06:56:10;;;;;;;6.50;5.85;;;;;;;3.26;78.34;97234.50;5039616;28;20057;-83
2022/01/20 06:58:57;;;;;;;6.38;5.57;;;;;;;3.26;78.10;97242.25;5040129;28;20403;-83
2022/01/20 07:01:25;;;;;;;9.10;5.65;;;;;;;3.25;78.59;97250.91;5038977;28;20091;-84
2022/01/20 07:03:52;;;;;;;11.43;6.80;;;;;;;3.27;79.34;97256.75;5038630;28;20053;-81
2022/01/20 07:06:21;;;;;;;10.70;6.47;;;;;;;3.27;79.25;97249.03;5039491;28;20053;-80
2022/01/20 07:08:49;;;;;;;10.32;6.68;;;;;;;3.22;79.10;97238.25;5037302;28;20053;-78
2022/01/20 07:11:17;;;;;;;12.35;6.45;;;;;;;3.16;78.87;97241.31;5038187;28;20053;-85
2022/01/20 07:13:44;;;;;;;9.55;6.28;;;;;;;3.14;79.00;97238.84;5039926;28;20064;-82
2022/01/20 07:16:12;;;;;;;6.65;5.78;;;;;;;3.12;78.65;97251.03;5040799;28;20064;-80
2022/01/20 07:18:39;;;;;;;10.40;5.97;;;;;;;3.10;78.53;97245.16;5038134;28;20056;-81
2022/01/20 07:21:07;;;;;;;9.40;6.10;;;;;;;3.08;78.81;97255.63;5035911;28;20071;-79
2022/01/20 07:23:36;;;;;;;10.82;6.50;;;;;;;3.08;78.97;97270.25;5034571;28;20050;-81
2022/01/20 07:26:04;;;;;;;9.75;6.78;;;;;;;3.12;79.91;97255.38;5034841;28;20045;-80
2022/01/20 07:28:31;;;;;;;8.80;6.10;;;;;;;3.14;79.90;97272.34;5035675;28;20053;-80
2022/01/20 07:30:59;;;;;;;8.60;6.57;;;;;;;3.16;79.66;97283.38;5035404;28;20049;-80
2022/01/20 07:33:27;;;;;;;10.57;7.13;;;;;;;3.17;78.71;97285.03;5035682;28;20053;-80
2022/01/20 07:35:54;;;;;;;10.52;7.43;;;;;;;3.20;79.30;97273.66;5038804;28;20048;-85
2022/01/20 07:38:22;;;;;;;10.15;6.32;;;;;;;3.21;79.71;97265.78;5041452;28;20046;-81
2022/01/20 07:40:51;;;;;;;11.27;5.20;;;;;;;3.23;78.91;97263.91;5040198;28;20632;-84
2022/01/20 07:43:20;;;;;;;8.90;5.53;;;;;;;3.25;78.74;97264.59;5039377;28;20053;-84
2022/01/20 07:45:48;;;;;;;9.85;6.20;;;;;;;3.29;78.96;97267.78;5039694;28;20045;-83
2022/01/20 07:48:16;;;;;;;13.02;5.88;;;;;;;3.32;79.44;97271.88;5040008;28;20053;-78
2022/01/20 07:50:44;;;;;;;8.30;5.18;;;;;;;3.32;78.54;97277.03;5039446;28;20060;-83
2022/01/20 07:53:11;;;;;;;8.13;5.10;;;;;;;3.30;78.11;97287.44;5039329;28;20128;-84
2022/01/20 07:55:39;;;;;;;7.50;4.63;;;;;;;3.26;77.65;97281.72;5039859;28;20052;-84
2022/01/20 07:58:08;;;;;;;10.25;5.65;;;;;;;3.23;77.80;97284.53;5040391;28;20045;-83
2022/01/20 08:00:36;;;;;;;10.32;5.28;;;;;;;3.23;78.14;97288.88;5040565;28;20061;-86
2022/01/20 08:03:04;;;;;;;10.48;5.45;;;;;;;3.24;78.51;97287.94;5040804;28;20081;-84
2022/01/20 08:05:32;;;;;;;11.43;4.90;;;;;;;3.24;77.87;97306.81;5039478;28;20049;-80
2022/01/20 08:07:59;;;;;;;11.75;5.50;;;;;;;3.22;78.14;97313.84;5039321;28;20058;-84
2022/01/20 08:10:27;;;;;;;9.05;5.65;;;;;;;3.23;79.00;97307.72;5039536;28;20049;-82
2022/01/20 08:12:55;;;;;;;10.90;6.30;;;;;;;3.27;79.05;97311.72;5039659;28;20054;-80
2022/01/20 08:15:24;;;;;;;8.27;5.40;;;;;;;3.26;77.57;97319.59;5039280;28;20427;-81
2022/01/20 08:17:51;;;;;;;11.32;5.40;;;;;;;3.23;77.54;97325.78;5039002;28;20049;-83
2022/01/20 08:20:19;;;;;;;10.77;4.82;;;;;;;3.25;77.46;97326.47;5038679;28;20050;-80
2022/01/20 08:22:47;;;;;;;12.07;5.15;;;;;;;3.25;76.83;97325.66;5038882;28;20053;-80
2022/01/20 08:25:16;;;;;;;9.05;4.63;;;;;;;3.22;77.29;97337.03;5038733;28;20053;-82
2022/01/20 08:27:46;;;;;;;9.30;5.07;;;;;;;3.22;76.81;97343.97;5036972;28;20057;-84
2022/01/20 08:30:16;;;;;;;8.45;5.07;;;;;;;3.23;77.48;97336.09;5039286;28;20107;-84
2022/01/20 08:32:46;;;;;;;11.65;5.30;;;;;;;3.25;77.50;97334.22;5039514;28;20056;-83
2022/01/20 08:35:15;;;;;;;8.02;4.32;;;;;;;3.23;76.94;97333.50;5040708;28;20049;-85
2022/01/20 08:37:45;;;;;;;6.10;4.70;;;;;;;3.25;77.38;97331.63;5042693;28;20049;-81
2022/01/20 08:40:15;;;;;;;9.07;4.55;;;;;;;3.27;76.66;97324.59;5043165;28;20041;-85
2022/01/20 08:42:46;;;;;;;16.48;5.40;;;;;;;3.31;77.15;97320.03;5043104;28;20049;-85
2022/01/20 08:45:16;;;;;;;9.32;4.63;;;;;;;3.38;77.54;97317.81;5041897;28;20049;-81
2022/01/20 08:47:45;;;;;;;7.07;4.43;;;;;;;3.49;78.08;97307.47;5040732;28;20411;-83
2022/01/20 08:50:14;;;;;;;7.45;4.10;;;;;;;3.59;77.53;97313.56;5040944;28;20053;-82
2022/01/20 08:52:45;;;;;;;8.23;4.20;;;;;;;3.65;76.76;97330.31;5041443;28;20041;-82
2022/01/20 08:55:12;;;;;;;10.25;4.30;;;;;;;3.65;76.88;97336.31;5040770;28;20112;-84
2022/01/20 08:57:40;;;;;;;10.93;5.05;;;;;;;3.67;76.78;97344.75;5041384;28;20058;-81
2022/01/20 09:00:09;;;;;;;10.60;5.03;;;;;;;3.69;77.10;97357.50;5041120;28;20105;-82
2022/01/20 09:02:37;;;;;;;11.65;6.10;;;;;;;3.68;76.86;97353.31;5040737;28;20458;-82
2022/01/20 09:05:07;;;;;;;12.20;4.30;;;;;;;3.67;76.91;97355.06;5040984;28;20076;-82
2022/01/20 09:07:34;;;;;;;9.55;5.00;;;;;;;3.66;76.43;97356.00;5045481;28;20053;-85
2022/01/20 09:10:04;;;;;;;11.88;5.13;;;;;;;3.67;76.53;97359.38;5044876;28;20041;-78
2022/01/20 09:15:29;;;;;;;10.10;4.35;;;;;;;3.65;76.56;97351.78;5043617;28;20049;-84
2022/01/20 09:17:58;;;;;;;9.20;3.63;;;;;;;3.62;75.98;97354.59;5043374;28;20399;-82
2022/01/20 09:20:28;;;;;;;8.20;4.05;;;;;;;3.61;76.80;97350.38;5043655;28;20053;-80
2022/01/20 09:22:55;;;;;;;8.52;4.30;;;;;;;3.60;76.53;97348.72;5043931;28;20053;-85
2022/01/20 09:25:24;;;;;;;11.30;3.95;;;;;;;3.56;76.25;97357.63;5043798;28;20507;-83
2022/01/20 09:27:52;;;;;;;9.93;4.30;;;;;;;3.55;76.49;97350.84;5042896;28;20053;-82
2022/01/20 09:30:22;;;;;;;14.60;5.47;;;;;;;3.53;77.06;97352.72;5042929;28;20057;-86
2022/01/20 09:32:59;;;;;;;10.40;4.85;;;;;;;3.54;76.92;97354.34;5041554;28;20065;-86
2022/01/20 09:35:31;;;;;;;8.82;4.30;;;;;;;3.53;77.21;97354.50;5041721;28;20061;-85
2022/01/20 09:37:59;;;;;;;8.38;4.22;;;;;;;3.53;76.71;97360.47;5041813;28;20057;-83
2022/01/20 09:40:29;;;;;;;9.02;4.82;;;;;;;3.54;77.47;97359.50;5040687;28;20083;-80
2022/01/20 09:42:57;;;;;;;10.30;4.90;;;;;;;3.55;78.24;97356.00;5041182;28;20060;-80
2022/01/20 09:45:24;;;;;;;9.20;4.35;;;;;;;3.57;77.76;97359.28;5042114;28;20045;-80
2022/01/20 09:47:52;;;;;;;11.68;5.43;;;;;;;3.53;77.40;97357.06;5041822;28;20049;-82
2022/01/20 09:50:22;;;;;;;10.68;5.30;;;;;;;3.49;77.14;97343.59;5041359;28;20522;-83
2022/01/20 09:52:55;;;;;;;11.48;4.65;;;;;;;3.49;78.10;97341.00;5041826;28;20115;-85
2022/01/20 09:55:23;;;;;;;7.03;4.53;;;;;;;3.47;77.26;97328.22;5042284;28;20050;-85
2022/01/20 09:57:50;;;;;;;8.73;4.82;;;;;;;3.45;77.50;97345.56;5040487;28;20049;-80
2022/01/20 10:00:19;;;;;;;9.65;5.15;;;;;;;3.45;77.40;97344.75;5041336;28;20507;-82
2022/01/20 10:02:52;;;;;;;8.10;4.30;;;;;;;3.44;77.86;97343.94;5041993;28;20049;-80
2022/01/20 10:05:30;;;;;;;10.70;5.82;;;;;;;3.47;78.00;97354.00;5041240;28;20053;-85
2022/01/20 10:08:06;;;;;;;10.50;5.05;;;;;;;3.47;76.97;97358.34;5041705;28;20545;-81
2022/01/20 10:10:41;;;;;;;13.45;5.30;;;;;;;3.47;77.15;97359.16;5042634;28;20053;-79
2022/01/20 10:13:09;;;;;;;10.65;4.95;;;;;;;3.46;77.56;97364.47;5040904;28;20423;-82
2022/01/20 10:15:38;;;;;;;11.40;5.20;;;;;;;3.46;77.61;97367.06;5041400;28;20045;-80
2022/01/20 10:18:07;;;;;;;12.13;5.10;;;;;;;3.47;77.39;97364.31;5040107;28;20053;-79
2022/01/20 10:20:35;;;;;;;13.57;5.07;;;;;;;3.51;77.56;97370.09;5040010;28;20045;-79
2022/01/20 10:23:04;;;;;;;8.98;4.50;;;;;;;3.54;78.09;97369.84;5040678;28;20049;-83
2022/01/20 10:25:35;;;;;;;14.35;5.45;;;;;;;3.54;77.50;97369.03;5040705;28;20415;-80
2022/01/20 10:28:03;;;;;;;11.35;5.30;;;;;;;3.54;77.36;97364.69;5041220;28;20056;-80
2022/01/20 10:30:33;;;;;;;9.68;5.15;;;;;;;3.55;77.67;97366.34;5040339;28;20053;-80
2022/01/20 10:33:02;;;;;;;11.57;4.97;;;;;;;3.55;77.56;97370.69;5040669;28;20057;-79
2022/01/20 10:35:34;;;;;;;11.18;5.07;;;;;;;3.56;77.54;97357.63;5040132;28;20053;-79
2022/01/20 10:38:12;;;;;;;8.95;4.05;;;;;;;3.58;77.31;97360.91;5038760;28;20065;-79
2022/01/20 10:40:47;;;;;;;10.13;5.45;;;;;;;3.60;76.54;97363.38;5040163;28;20065;-81
2022/01/20 10:43:22;;;;;;;9.82;4.75;;;;;;;3.60;77.80;97342.75;5040804;28;20053;-83
2022/01/20 10:46:02;;;;;;;8.82;4.10;;;;;;;3.62;77.15;97349.44;5040257;28;20054;-84
2022/01/20 10:48:29;;;;;;;9.23;4.38;;;;;;;3.61;77.36;97350.38;5041082;28;20056;-81
2022/01/20 10:50:57;;;;;;;8.63;4.00;;;;;;;3.62;77.24;97354.59;5040768;28;20423;-84
2022/01/20 10:53:26;;;;;;;14.18;4.55;;;;;;;3.62;76.80;97353.78;5040727;28;20104;-81
2022/01/20 10:56:04;;;;;;;12.93;4.93;;;;;;;3.63;77.13;97347.66;5038735;28;20045;-79
2022/01/20 10:58:32;;;;;;;11.00;4.68;;;;;;;3.63;77.46;97342.50;5039102;28;20050;-83
2022/01/20 11:01:00;;;;;;;5.80;3.90;;;;;;;3.66;76.65;97348.25;5040361;28;20045;-80
2022/01/20 11:03:31;;;;;;;11.52;4.47;;;;;;;3.71;76.98;97338.38;5039012;28;20108;-79
2022/01/20 11:05:59;;;;;;;9.90;4.00;;;;;;;3.84;77.12;97329.69;5039327;28;20049;-81
2022/01/20 11:08:29;;;;;;;10.27;4.78;;;;;;;3.95;76.88;97327.06;5040044;28;20151;-83
2022/01/20 11:10:58;;;;;;;13.93;4.80;;;;;;;3.96;75.93;97326.13;5039840;28;20045;-79
2022/01/20 11:13:27;;;;;;;12.38;4.40;;;;;;;3.91;75.75;97326.50;5039442;28;20053;-79
2022/01/20 11:15:54;;;;;;;10.88;4.10;;;;;;;3.89;76.09;97319.81;5038619;28;20053;-80
2022/01/20 11:18:27;;;;;;;12.27;5.50;;;;;;;3.85;76.32;97321.00;5039485;28;20053;-80
2022/01/20 11:20:56;;;;;;;8.23;4.28;;;;;;;3.83;75.95;97325.47;5038899;28;20423;-80
2022/01/20 11:23:23;;;;;;;9.38;4.40;;;;;;;3.82;76.52;97327.22;5038842;28;20072;-79
2022/01/20 11:26:04;;;;;;;11.55;5.45;;;;;;;3.82;77.65;97332.38;5038745;28;20072;-83
2022/01/20 11:28:32;;;;;;;7.32;4.57;;;;;;;3.81;76.91;97335.09;5039349;28;20052;-82
2022/01/20 11:31:03;;;;;;;14.55;5.38;;;;;;;3.77;76.85;97323.38;5038563;28;20061;-80
2022/01/20 11:33:37;;;;;;;10.40;4.78;;;;;;;3.74;77.69;97329.59;5037078;28;20099;-81
2022/01/20 11:36:05;;;;;;;8.18;4.18;;;;;;;3.76;77.07;97322.56;5038318;28;20495;-79
2022/01/20 11:38:41;;;;;;;11.52;5.03;;;;;;;3.77;76.63;97323.38;5039076;28;20502;-80
2022/01/20 11:41:13;;;;;;;11.77;5.05;;;;;;;3.75;77.02;97330.41;5038807;28;20054;-84
2022/01/20 11:43:44;;;;;;;10.15;5.15;;;;;;;3.74;77.52;97336.50;5039017;28;20049;-81
2022/01/20 11:46:14;;;;;;;8.75;5.05;;;;;;;3.70;77.74;97344.50;5038610;28;20053;-80
2022/01/20 11:49:08;;;;;;;11.80;5.53;;;;;;;3.67;78.29;97339.59;5038317;28;20115;-79
2022/01/20 11:51:47;;;;;;;9.13;4.97;;;;;;;3.66;78.23;97329.38;5027382;28;20053;-79
2022/01/20 11:54:30;;;;;;;;;;;;;;;3.69;78.38;97332.53;5039538;28;20084;-82
2022/01/20 11:57:08;;;;;;;11.93;5.40;;;;;;;3.69;78.69;97327.34;5040321;28;19928;-82
2022/01/20 11:59:37;;;;;;;9.60;4.32;;;;;;;3.75;78.00;97322.66;5041986;28;20060;-81
2022/01/20 12:02:06;;;;;;;9.43;4.72;;;;;;;3.76;78.07;97311.41;5044051;28;20056;-80
2022/01/20 12:04:34;;;;;;;11.25;5.45;;;;;;;3.80;78.57;97307.63;5036769;28;20049;-79
2022/01/20 12:07:03;;;;;;;10.40;4.82;;;;;;;3.82;78.89;97310.91;5037261;28;20052;-80
2022/01/20 12:09:34;;;;;;;10.90;5.10;;;;;;;3.79;78.88;97311.97;5039744;28;20045;-79
2022/01/20 12:12:02;;;;;;;9.10;4.35;;;;;;;3.79;78.41;97308.59;5042007;28;20050;-79
2022/01/20 12:14:36;;;;;;;6.57;4.15;;;;;;;3.76;78.65;97301.91;5041237;28;20048;-80
2022/01/20 12:17:06;;;;;;;6.32;4.03;;;;;;;3.75;77.86;97304.63;5039412;28;20052;-79
2022/01/20 12:19:34;;;;;;;8.15;4.65;;;;;;;3.71;78.36;97315.16;5040991;28;20462;-79
2022/01/20 12:22:07;;;;;;;8.95;5.15;;;;;;;3.71;78.81;97304.84;5042470;28;20045;-82
2022/01/20 12:24:36;;;;;;;7.28;4.43;;;;;;;3.69;78.63;97306.72;5040442;28;20053;-78
2022/01/20 12:27:15;;;;;;;9.55;5.07;;;;;;;3.72;79.54;97296.16;5030645;28;20050;-79
2022/01/20 12:29:44;;;;;;;9.82;5.53;;;;;;;3.75;78.72;97294.28;5019475;28;20409;-76
2022/01/20 12:32:14;;;;;;;11.57;5.40;;;;;;;3.77;79.42;97289.81;5018887;28;20049;-80
2022/01/20 12:34:43;;;;;;;6.93;3.97;;;;;;;3.79;79.25;97287.94;5019768;28;20050;-78
2022/01/20 12:37:11;;;;;;;8.75;4.85;;;;;;;3.79;78.80;97290.53;5019429;28;20046;-78
2022/01/20 12:39:41;;;;;;;10.15;4.82;;;;;;;3.78;79.43;97291.44;5019217;28;20061;-77
2022/01/20 12:42:11;;;;;;;10.45;4.72;;;;;;;3.79;78.94;97295.69;5019778;28;20050;-78